ADDS METAR Data INFO
IDs: Format: Raw Decoded Include TAF

Data at: 1925 UTC 19 Jul 2018

KPPQ 191915Z AUTO 17007KT 10SM CLR 27/22 A2988 RMK AO2 LTG DSNT NE T02650221
KPPQ 191855Z AUTO 14009G14KT 10SM CLR 26/22 A2989 RMK AO2 T02560217
KPPQ 191835Z AUTO 14008KT 10SM VCTS SCT050 25/22 A2990 RMK AO2 LTG DSNT NE AND E T02500215
KPPQ 191815Z AUTO 16009KT 10SM BKN050 24/21 A2991 RMK AO2 LTG DSNT N AND NE T02420213
KPPQ 191755Z AUTO 13004KT 10SM SCT030 SCT037 BKN050 23/21 A2991 RMK AO2 LTG DSNT N 60003 T02290211 10232 20182
KPPQ 191735Z AUTO 12003KT 10SM SCT030 BKN039 OVC055 23/21 A2993 RMK AO2 LTG DSNT N AND SE T02250209
KPPQ 191715Z AUTO 13004KT 10SM SCT039 BKN070 OVC090 22/21 A2991 RMK AO2 LTG DSNT N SE AND SW T02150206
KPPQ 191655Z AUTO 15009G17KT 3SM SCT060 SCT070 OVC090 22/20 A2991 RMK AO2 LTG DSNT ALQS P0003 T02150204
KPPQ 191635Z AUTO 17007KT 10SM VCTS SCT065 BKN080 BKN100 23/20 A2993 RMK AO2 LTG DSNT N S AND SW T02300200
KPPQ 191615Z AUTO 15005KT 10SM SCT075 SCT080 23/20 A2994 RMK AO2 LTG DSNT SW AND NW T02300197
KPPQ 191555Z AUTO 15006KT 10SM SCT037 SCT075 23/20 A2994 RMK AO2 LTG DSNT SW THRU NW T02310195
KPPQ 191535Z AUTO 14006KT 10SM SCT075 23/19 A2994 RMK AO2 LTG DSNT W THRU NE T02300191
KPPQ 191515Z AUTO 14005KT 10SM SCT039 BKN046 BKN060 23/19 A2994 RMK AO2 LTG DSNT SW AND W T02250186
KPPQ 191455Z AUTO 13004KT 10SM VCTS BKN039 OVC045 23/18 A2995 RMK AO2 LTG DSNT W T02260183
KPPQ 191435Z AUTO 13007KT 10SM TS BKN041 OVC060 23/18 A2995 RMK AO2 LTG DSNT W THRU NE T02250180
KPPQ 191415Z AUTO 13005KT 10SM BKN041 BKN050 OVC075 23/18 A2996 RMK AO2 LTG DSNT NE T02250180
KPPQ 191355Z AUTO 11007KT 10SM BKN050 OVC065 22/18 A2995 RMK AO2 LTG DSNT N T02150178
KPPQ 191335Z AUTO 14007KT 10SM SCT046 OVC055 21/18 A2995 RMK AO2 LTG DSNT NE AND S T02070176
KPPQ 191315Z AUTO 14005KT 10SM VCTS OVC046 20/18 A2996 RMK AO2 LTG DSNT N T01950176
KPPQ 191255Z AUTO 13004KT 10SM VCTS BKN046 OVC050 19/18 A2996 RMK AO2 LTG DSNT N NE AND S T01890175
KPPQ 191235Z AUTO 12005KT 10SM VCTS OVC044 19/18 A2997 RMK AO2 LTG DSNT N E AND S T01850175
KPPQ 191215Z AUTO 10003KT 10SM TS OVC042 19/18 A2998 RMK AO2 LTG DSNT ALQS T01850175
KPPQ 191155Z AUTO 07004KT 10SM VCTS OVC042 18/18 A2998 RMK AO2 LTG DSNT ALQS P0005 60042 70042 T01830175 10206 20180
KPPQ 191135Z AUTO 07003KT 3SM VCTS OVC046 18/17 A2998 RMK AO2 LTG DSNT ALQS P0003 T01830174
KPPQ 191115Z AUTO 10005KT 10SM SCT025 BKN050 OVC055 18/17 A2997 RMK AO2 LTG DSNT E AND NW P0001 T01840172
KPPQ 191055Z AUTO 07004KT 3/4SM TS BKN027 BKN048 OVC050 18/18 A2997 RMK AO2 LTG DSNT NW THRU SE P0031 T01810175
KPPQ 191035Z AUTO 00000KT 2 1/2SM TS SCT036 BKN060 OVC070 18/17 A2998 RMK AO2 LTG DSNT N S AND SW P0021 T01810173
KPPQ 191015Z AUTO 00000KT 3SM TS BKN065 OVC090 19/18 A2997 RMK AO2 LTG DSNT ALQS P0004 T01860175
KPPQ 190955Z AUTO 00000KT 5SM VCTS SCT046 SCT065 OVC090 19/17 A2999 RMK AO2 LTG DSNT SW THRU NW P0006 T01890171
KPPQ 190935Z AUTO 00000KT 10SM OVC080 20/16 A2998 RMK AO2 T02000161
KPPQ 190915Z AUTO 00000KT 10SM VCTS BKN080 BKN100 20/16 A2998 RMK AO2 LTG DSNT NW T02010157
KPPQ 190855Z AUTO 09003KT 10SM OVC080 21/15 A2998 RMK AO2 T02060154
KPPQ 190835Z AUTO 00000KT 10SM OVC070 21/15 A2999 RMK AO2 T02050153
KPPQ 190815Z AUTO 10003KT 10SM OVC070 20/16 A2999 RMK AO2 T02020155
KPPQ 190755Z AUTO 09004KT 10SM OVC070 20/16 A2999 RMK AO2 T01980160
KPPQ 190735Z AUTO 00000KT 10SM BKN070 20/16 A3000 RMK AO2 T01970160
KPPQ 190715Z AUTO 10004KT 10SM CLR 20/16 A3000 RMK AO2 LTG DSNT N T02020156
KPPQ 190655Z AUTO 09004KT 10SM CLR 20/16 A3001 RMK AO2 LTG DSNT NW T02030160
KPPQ 190635Z AUTO 09004KT 10SM SCT090 21/16 A3002 RMK AO2 T02050163
KPPQ 190615Z AUTO 08003KT 10SM SCT090 21/17 A3002 RMK AO2 T02050165
KPPQ 190555Z AUTO 08003KT 10SM CLR 21/17 A3003 RMK AO2 T02070166 10266 20207 402980179
KPPQ 190535Z AUTO 08004KT 10SM CLR 21/17 A3003 RMK AO2 T02100168
KPPQ 190515Z AUTO 08003KT 10SM CLR 21/17 A3003 RMK AO2 LTG DSNT NW T02130170
KPPQ 190455Z AUTO 10005KT 10SM CLR 22/17 A3003 RMK AO2 T02150171
KPPQ 190435Z AUTO 10004KT 10SM CLR 22/18 A3003 RMK AO2 T02160175
KPPQ 190415Z AUTO 09004KT 10SM CLR 22/18 A3003 RMK AO2 T02200177
KPPQ 190355Z AUTO 09004KT 10SM CLR 22/18 A3003 RMK AO2 T02230181
KPPQ 190335Z AUTO 09005KT 10SM CLR 23/18 A3003 RMK AO2 T02270183
KPPQ 190315Z AUTO 09005KT 10SM CLR 23/19 A3003 RMK AO2 T02300188
KPPQ 190255Z AUTO 08004KT 10SM CLR 23/19 A3002 RMK AO2 T02300193
KPPQ 190235Z AUTO 07005KT 10SM CLR 23/20 A3001 RMK AO2 T02330195
KPPQ 190215Z AUTO 08004KT 10SM CLR 24/20 A3000 RMK AO2 T02350196
KPPQ 190155Z AUTO 08005KT 10SM CLR 24/20 A3000 RMK AO2 T02380197
KPPQ 190135Z AUTO 08003KT 10SM CLR 24/20 A3001 RMK AO2 T02420199
KPPQ 190115Z AUTO 08005KT 10SM CLR 25/20 A3001 RMK AO2 T02470201
KPPQ 190055Z AUTO 09005KT 10SM CLR 26/20 A3001 RMK AO2 T02550201
KPPQ 190035Z AUTO 08004KT 10SM CLR 26/20 A3001 RMK AO2 T02590202
KPPQ 190010Z AUTO 10005KT 10SM 27/20 A3001 RMK AO2 T02650200
KPPQ 182355Z AUTO 09005KT 27/20 A3002 RMK AO2 T02670202 10298 20267 PWINO
KPPQ 182335Z AUTO 07007KT 10SM CLR 27/20 A3002 RMK AO2 T02700201
KPPQ 182315Z AUTO 08006KT 10SM CLR 28/20 A3001 RMK AO2 T02750204
KPPQ 182255Z AUTO 08006KT 10SM CLR 28/21 A3001 RMK AO2 T02800207
KPPQ 182235Z AUTO 07005KT 10SM SCT037 28/21 A3001 RMK AO2 T02750205
KPPQ 182215Z AUTO 08008KT 10SM SCT039 SCT048 SCT050 28/20 A3001 RMK AO2 T02800204
KPPQ 182155Z AUTO 09008KT 10SM SCT037 SCT050 29/20 A3002 RMK AO2 T02890202
KPPQ 182135Z AUTO 09007KT 10SM SCT039 SCT050 28/20 A3002 RMK AO2 T02820200
KPPQ 182115Z AUTO 10007KT 10SM SCT039 SCT060 30/20 A3002 RMK AO2 T02970203
KPPQ 182055Z AUTO 10005KT 10SM BKN039 BKN060 28/20 A3003 RMK AO2 T02800198
KPPQ 182035Z AUTO 05006KT 10SM SCT039 BKN045 30/20 A3004 RMK AO2 T02960202
KPPQ 182015Z AUTO 10004KT 10SM SCT038 SCT044 SCT060 29/20 A3005 RMK AO2 T02890204
KPPQ 181955Z AUTO 10006KT 10SM SCT038 29/20 A3005 RMK AO2 T02850201
KPPQ 181935Z AUTO 11006KT 10SM CLR 29/21 A3006 RMK AO2 T02870205
KPPQ 181915Z AUTO 12005KT 10SM CLR 29/20 A3007 RMK AO2 T02880197
KPPQ 181855Z AUTO 12004KT 10SM CLR 28/20 A3007 RMK AO2 T02840199
KPPQ 181835Z AUTO 10007KT 10SM CLR 28/20 A3008 RMK AO2 T02840197
KPPQ 181815Z AUTO 09007KT 050V110 10SM CLR 28/20 A3009 RMK AO2 T02800197
KPPQ 181755Z AUTO 11005KT 10SM CLR 28/19 A3009 RMK AO2 T02800194 10280 20196
KPPQ 181735Z AUTO 08006KT 10SM CLR 28/19 A3009 RMK AO2 T02780192
KPPQ 181715Z AUTO 12005KT 10SM CLR 27/19 A3010 RMK AO2 T02730190
KPPQ 181655Z AUTO 08006KT 10SM CLR 27/19 A3010 RMK AO2 T02720188
KPPQ 181635Z AUTO 12006KT 10SM CLR 27/18 A3011 RMK AO2 T02650181
KPPQ 181615Z AUTO 11005KT 10SM CLR 26/18 A3011 RMK AO2 T02590179
KPPQ 181555Z AUTO 10006KT 10SM CLR 26/18 A3012 RMK AO2 T02580178
KPPQ 181535Z AUTO 09006KT 10SM CLR 26/17 A3012 RMK AO2 T02560173
KPPQ 181515Z AUTO 13009KT 10SM CLR 25/17 A3011 RMK AO2 T02490169
KPPQ 181455Z AUTO 13008KT 10SM CLR 24/17 A3010 RMK AO2 T02440172
KPPQ 181435Z AUTO 12005KT 10SM CLR 24/17 A3011 RMK AO2 T02390170
KPPQ 181415Z AUTO 11004KT 10SM CLR 24/17 A3011 RMK AO2 T02360172
KPPQ 181355Z AUTO 10007KT 10SM CLR 23/17 A3011 RMK AO2 T02270166
KPPQ 181335Z AUTO 11004KT 10SM SCT100 21/17 A3011 RMK AO2 LTG DSNT SW T02140171
KPPQ 181315Z AUTO 10005KT 10SM SCT090 22/17 A3012 RMK AO2 T02150173
KPPQ 181255Z AUTO 13005KT 10SM SCT090 21/18 A3011 RMK AO2 T02130177
KPPQ 181235Z AUTO 10005KT 10SM CLR 21/18 A3010 RMK AO2 T02060181
KPPQ 181215Z AUTO 00000KT 10SM CLR 20/18 A3010 RMK AO2 T01970184
KPPQ 181155Z AUTO 07005KT 10SM CLR 20/18 A3010 RMK AO2 T01950183 10201 20179
KPPQ 181135Z AUTO 06004KT 10SM SCT110 20/19 A3010 RMK AO2 T01970186
KPPQ 181115Z AUTO 07005KT 10SM BKN100 20/19 A3009 RMK AO2 T01980188
KPPQ 181055Z AUTO 07006KT 10SM OVC090 20/19 A3009 RMK AO2 T02000191
KPPQ 181035Z AUTO 06005KT 10SM OVC090 20/19 A3009 RMK AO2 T02000193
KPPQ 181015Z AUTO 05005KT 10SM BKN090 19/19 A3009 RMK AO2 T01940190
KPPQ 180955Z AUTO 06003KT 10SM CLR 20/19 A3009 RMK AO2 T01950189
KPPQ 180935Z AUTO 04006KT 10SM CLR 19/19 A3008 RMK AO2 T01900188
KPPQ 180915Z AUTO 00000KT 10SM CLR 19/18 A3008 RMK AO2 T01860179
KPPQ 180855Z AUTO 00000KT 10SM CLR 19/18 A3008 RMK AO2 T01860181
KPPQ 180835Z AUTO 00000KT 10SM CLR 19/18 A3008 RMK AO2 T01850180
KPPQ 180815Z AUTO 00000KT 10SM CLR 19/18 A3008 RMK AO2 T01880183
KPPQ 180755Z AUTO 00000KT 10SM CLR 19/19 A3008 RMK AO2 T01900188
KPPQ 180735Z AUTO 00000KT 10SM CLR 19/19 A3009 RMK AO2 T01910186